Schedule Details


Flight Number: CTN631
Departure: Zemunik (LDZD) at 06:55
Arrival: Franjo Tudman (LDZA) at 07:35
Route: ALANU L868 KULEN M986 KOTOR

Weather Information
LDZD 172230Z VRB03KT CAVOK 19/16 Q1017 NOSIG
LDZA 172230Z 00000KT CAVOK 19/15 Q1017 NOSIG
Schedule Frequency

Route Map